メインページ
METAR-TAF:

METAR-TAF

空港 :

岩国飛行場

岩国, 日本

緯度: 34-08N, 経度: 132-14E, 海抜: 2m

現時点の気象観測

当レポートは52分前の07:55(UTC)に作成
西/南西の風 10kt
気温 10°C
湿度 46%
気圧 1024 hPa
視程10km以上
高度3000ftの雲はほとんどない
高度4500ftの千切れ雲あり

METAR: RJOI 130755Z 25010KT 9999 FEW030 BKN045 10/M01 A3025 RMK SLP242 T01001011

時間: 17:47 (08:47 UTC)

予報

予報は13日の 05時(UTC)から 14日の 05時(UTC)まで有効
西/北西の風 8kt
視程10km以上
高度3500ftの雲は散在している
13日の 06時(UTC)から 13日の 08時(UTC)まで徐々に
西/北西の風 10kt、最大18ktの突風を伴う
視程10km以上
高度2000ftの雲はほとんどない
高度3000ftの千切れ雲あり
13日の 1100時(UTC)から
北西の風 12kt、最大20ktの突風を伴う
視程10km以上
高度1500ftの雲はほとんどない
高度2500ftの千切れ雲あり
近辺でにわか雨
13日の 17時(UTC)から 13日の 19時(UTC)まで徐々に
北/北西の風 8kt
視程10km以上
高度1500ftの雲はほとんどない
高度2500ftの雲は散在している
13日の 23時(UTC)から 14日の 00時(UTC)まで徐々に
北/北西の風 6kt
視程10km以上
高度2000ftの雲はほとんどない
高度3000ftの千切れ雲あり

TAF: RJOI 1305/1405 29008KT 9999 SCT035 510006 QNH3020INS BECMG 1306/1308 29010G18KT 9999 FEW020 BKN030 620303 540006 QNH3026INS FM131100 31012G20KT 9999 VCSH FEW015 BKN025 620254 540006 QNH3027INS BECMG 1317/1319 33008KT 9999 FEW015 SCT025 600000 500000 QNH3031INS BECMG 1323/1400 34006KT 9999 FEW020 BKN030 620204 QNH3033INS T12/1305Z T02/1321Z

4,000以上の空港の気象観測と天気予報(METAR報とTAF報)

利用可能な観測所は地図上に黄色い丸と赤い丸で示す。

丸の上にカーソルを重ねると観測所名を参照できる。

次にクリックすると気象観測と天気予報を参照できる。

マップの切り替え:黒色「×」印の緑ボタンをクリックして拡大、「-」印の緑ボタンをクリックして縮小、緑色の三角印をクリックして隣りの地図に切り替え


METAR-TAF: